sensor_id;sensor_type;location;lat;lon;timestamp;P1;durP1;ratioP1;P2;durP2;ratioP2
28756;SDS011;44294;48.282;14.282;2023-12-20T00:00:36;13.63;;;10.77;;
28756;SDS011;44294;48.282;14.282;2023-12-20T00:03:25;10.80;;;9.57;;
28756;SDS011;44294;48.282;14.282;2023-12-20T00:06:12;12.60;;;10.37;;
28756;SDS011;44294;48.282;14.282;2023-12-20T00:09:00;12.43;;;10.30;;
28756;SDS011;44294;48.282;14.282;2023-12-20T00:11:47;12.27;;;10.37;;
28756;SDS011;44294;48.282;14.282;2023-12-20T00:14:34;11.57;;;9.70;;
28756;SDS011;44294;48.282;14.282;2023-12-20T00:17:22;10.73;;;9.40;;
28756;SDS011;44294;48.282;14.282;2023-12-20T00:20:09;9.17;;;8.03;;
28756;SDS011;44294;48.282;14.282;2023-12-20T00:22:57;9.07;;;8.03;;
28756;SDS011;44294;48.282;14.282;2023-12-20T00:25:44;8.83;;;7.40;;
28756;SDS011;44294;48.282;14.282;2023-12-20T00:28:32;8.10;;;6.70;;
28756;SDS011;44294;48.282;14.282;2023-12-20T00:31:19;7.87;;;7.00;;
28756;SDS011;44294;48.282;14.282;2023-12-20T00:34:06;8.50;;;7.17;;
28756;SDS011;44294;48.282;14.282;2023-12-20T00:36:53;8.13;;;7.17;;
28756;SDS011;44294;48.282;14.282;2023-12-20T00:39:41;8.13;;;7.13;;
28756;SDS011;44294;48.282;14.282;2023-12-20T00:42:28;7.77;;;6.90;;
28756;SDS011;44294;48.282;14.282;2023-12-20T00:45:16;7.47;;;6.63;;
28756;SDS011;44294;48.282;14.282;2023-12-20T00:48:03;7.03;;;6.33;;
28756;SDS011;44294;48.282;14.282;2023-12-20T00:50:50;7.90;;;7.10;;
28756;SDS011;44294;48.282;14.282;2023-12-20T00:53:38;8.33;;;7.43;;
28756;SDS011;44294;48.282;14.282;2023-12-20T00:56:25;8.77;;;7.60;;
28756;SDS011;44294;48.282;14.282;2023-12-20T00:59:12;8.80;;;7.90;;
28756;SDS011;44294;48.282;14.282;2023-12-20T01:02:01;8.47;;;7.57;;
28756;SDS011;44294;48.282;14.282;2023-12-20T01:04:48;9.23;;;8.27;;
28756;SDS011;44294;48.282;14.282;2023-12-20T01:07:35;9.20;;;8.00;;
28756;SDS011;44294;48.282;14.282;2023-12-20T01:10:23;10.67;;;9.27;;
28756;SDS011;44294;48.282;14.282;2023-12-20T01:13:12;10.30;;;8.60;;
28756;SDS011;44294;48.282;14.282;2023-12-20T01:15:59;10.90;;;8.17;;
28756;SDS011;44294;48.282;14.282;2023-12-20T01:18:46;11.43;;;8.50;;
28756;SDS011;44294;48.282;14.282;2023-12-20T01:21:34;10.17;;;8.10;;
28756;SDS011;44294;48.282;14.282;2023-12-20T01:24:21;10.13;;;8.17;;
28756;SDS011;44294;48.282;14.282;2023-12-20T01:27:08;10.10;;;8.20;;
28756;SDS011;44294;48.282;14.282;2023-12-20T01:29:56;9.93;;;8.13;;
28756;SDS011;44294;48.282;14.282;2023-12-20T01:32:43;8.73;;;7.80;;
28756;SDS011;44294;48.282;14.282;2023-12-20T01:35:30;8.87;;;7.73;;
28756;SDS011;44294;48.282;14.282;2023-12-20T01:38:18;8.97;;;7.60;;
28756;SDS011;44294;48.282;14.282;2023-12-20T01:41:06;9.13;;;7.57;;
28756;SDS011;44294;48.282;14.282;2023-12-20T01:43:53;8.70;;;7.23;;
28756;SDS011;44294;48.282;14.282;2023-12-20T01:46:40;8.20;;;7.17;;
28756;SDS011;44294;48.282;14.282;2023-12-20T01:49:28;8.27;;;7.30;;
28756;SDS011;44294;48.282;14.282;2023-12-20T01:52:15;8.27;;;7.17;;
28756;SDS011;44294;48.282;14.282;2023-12-20T01:55:04;7.80;;;6.80;;
28756;SDS011;44294;48.282;14.282;2023-12-20T01:57:53;7.03;;;6.33;;
28756;SDS011;44294;48.282;14.282;2023-12-20T02:00:40;7.30;;;6.13;;
28756;SDS011;44294;48.282;14.282;2023-12-20T02:03:28;7.10;;;6.40;;
28756;SDS011;44294;48.282;14.282;2023-12-20T02:06:16;7.20;;;6.17;;
28756;SDS011;44294;48.282;14.282;2023-12-20T02:09:03;6.30;;;5.70;;
28756;SDS011;44294;48.282;14.282;2023-12-20T02:11:51;6.90;;;5.77;;
28756;SDS011;44294;48.282;14.282;2023-12-20T02:14:38;6.47;;;5.57;;
28756;SDS011;44294;48.282;14.282;2023-12-20T02:17:25;6.80;;;5.83;;
28756;SDS011;44294;48.282;14.282;2023-12-20T02:20:13;5.80;;;5.20;;
28756;SDS011;44294;48.282;14.282;2023-12-20T02:23:00;8.10;;;7.30;;
28756;SDS011;44294;48.282;14.282;2023-12-20T02:25:48;6.83;;;6.13;;
28756;SDS011;44294;48.282;14.282;2023-12-20T02:28:35;7.47;;;6.50;;
28756;SDS011;44294;48.282;14.282;2023-12-20T02:31:23;7.00;;;6.30;;
28756;SDS011;44294;48.282;14.282;2023-12-20T02:34:10;7.17;;;6.43;;
28756;SDS011;44294;48.282;14.282;2023-12-20T02:36:57;6.27;;;5.67;;
28756;SDS011;44294;48.282;14.282;2023-12-20T02:39:44;7.23;;;6.07;;
28756;SDS011;44294;48.282;14.282;2023-12-20T02:42:32;6.77;;;6.07;;
28756;SDS011;44294;48.282;14.282;2023-12-20T02:45:19;6.23;;;5.57;;
28756;SDS011;44294;48.282;14.282;2023-12-20T02:48:06;6.83;;;6.13;;
28756;SDS011;44294;48.282;14.282;2023-12-20T02:50:54;7.83;;;6.33;;
28756;SDS011;44294;48.282;14.282;2023-12-20T02:53:41;7.53;;;6.60;;
28756;SDS011;44294;48.282;14.282;2023-12-20T02:56:29;6.97;;;6.27;;
28756;SDS011;44294;48.282;14.282;2023-12-20T02:59:16;7.30;;;6.60;;
28756;SDS011;44294;48.282;14.282;2023-12-20T03:02:03;7.43;;;6.70;;
28756;SDS011;44294;48.282;14.282;2023-12-20T03:04:50;7.57;;;6.47;;
28756;SDS011;44294;48.282;14.282;2023-12-20T03:07:38;7.40;;;6.60;;
28756;SDS011;44294;48.282;14.282;2023-12-20T03:10:25;7.83;;;6.87;;
28756;SDS011;44294;48.282;14.282;2023-12-20T03:13:12;8.83;;;7.40;;
28756;SDS011;44294;48.282;14.282;2023-12-20T03:16:00;8.67;;;7.53;;
28756;SDS011;44294;48.282;14.282;2023-12-20T03:18:48;7.93;;;7.10;;
28756;SDS011;44294;48.282;14.282;2023-12-20T03:21:35;8.17;;;7.10;;
28756;SDS011;44294;48.282;14.282;2023-12-20T03:24:22;7.60;;;6.80;;
28756;SDS011;44294;48.282;14.282;2023-12-20T03:27:09;8.57;;;6.60;;
28756;SDS011;44294;48.282;14.282;2023-12-20T03:29:57;8.23;;;7.10;;
28756;SDS011;44294;48.282;14.282;2023-12-20T03:32:44;7.73;;;6.83;;
28756;SDS011;44294;48.282;14.282;2023-12-20T03:35:31;7.93;;;7.10;;
28756;SDS011;44294;48.282;14.282;2023-12-20T03:38:19;7.77;;;6.80;;
28756;SDS011;44294;48.282;14.282;2023-12-20T03:41:06;8.23;;;6.87;;
28756;SDS011;44294;48.282;14.282;2023-12-20T03:43:54;8.37;;;7.47;;
28756;SDS011;44294;48.282;14.282;2023-12-20T03:46:41;7.50;;;6.60;;
28756;SDS011;44294;48.282;14.282;2023-12-20T03:49:28;7.73;;;6.90;;
28756;SDS011;44294;48.282;14.282;2023-12-20T03:52:16;7.77;;;6.93;;
28756;SDS011;44294;48.282;14.282;2023-12-20T03:55:03;8.50;;;7.20;;
28756;SDS011;44294;48.282;14.282;2023-12-20T03:57:51;7.93;;;6.70;;
28756;SDS011;44294;48.282;14.282;2023-12-20T04:00:38;8.33;;;7.33;;
28756;SDS011;44294;48.282;14.282;2023-12-20T04:03:26;8.40;;;7.47;;
28756;SDS011;44294;48.282;14.282;2023-12-20T04:06:21;8.40;;;7.20;;
28756;SDS011;44294;48.282;14.282;2023-12-20T04:09:05;7.97;;;6.70;;
28756;SDS011;44294;48.282;14.282;2023-12-20T04:11:54;7.70;;;6.90;;
28756;SDS011;44294;48.282;14.282;2023-12-20T04:14:42;8.43;;;6.93;;
28756;SDS011;44294;48.282;14.282;2023-12-20T04:17:29;7.60;;;6.53;;
28756;SDS011;44294;48.282;14.282;2023-12-20T04:20:16;7.60;;;6.80;;
28756;SDS011;44294;48.282;14.282;2023-12-20T04:23:04;7.80;;;6.60;;
28756;SDS011;44294;48.282;14.282;2023-12-20T04:25:51;7.20;;;5.90;;
28756;SDS011;44294;48.282;14.282;2023-12-20T04:28:38;6.47;;;5.70;;
28756;SDS011;44294;48.282;14.282;2023-12-20T04:31:26;6.93;;;6.03;;
28756;SDS011;44294;48.282;14.282;2023-12-20T04:34:13;8.23;;;6.13;;
28756;SDS011;44294;48.282;14.282;2023-12-20T04:37:01;7.57;;;6.17;;
28756;SDS011;44294;48.282;14.282;2023-12-20T04:39:48;7.00;;;5.80;;
28756;SDS011;44294;48.282;14.282;2023-12-20T04:42:35;6.10;;;5.50;;
28756;SDS011;44294;48.282;14.282;2023-12-20T04:45:22;6.27;;;5.57;;
28756;SDS011;44294;48.282;14.282;2023-12-20T04:48:11;6.87;;;6.10;;
28756;SDS011;44294;48.282;14.282;2023-12-20T04:50:59;8.07;;;6.80;;
28756;SDS011;44294;48.282;14.282;2023-12-20T04:53:46;6.43;;;5.73;;
28756;SDS011;44294;48.282;14.282;2023-12-20T04:56:33;6.20;;;5.60;;
28756;SDS011;44294;48.282;14.282;2023-12-20T04:59:21;6.87;;;5.90;;
28756;SDS011;44294;48.282;14.282;2023-12-20T05:02:08;7.30;;;5.80;;
28756;SDS011;44294;48.282;14.282;2023-12-20T05:04:55;7.20;;;6.40;;
28756;SDS011;44294;48.282;14.282;2023-12-20T05:07:43;7.13;;;6.43;;
28756;SDS011;44294;48.282;14.282;2023-12-20T05:10:30;7.97;;;7.00;;
28756;SDS011;44294;48.282;14.282;2023-12-20T05:13:18;7.70;;;6.57;;
28756;SDS011;44294;48.282;14.282;2023-12-20T05:16:05;11.10;;;7.97;;
28756;SDS011;44294;48.282;14.282;2023-12-20T05:18:52;8.53;;;7.50;;
28756;SDS011;44294;48.282;14.282;2023-12-20T05:21:40;7.80;;;7.00;;
28756;SDS011;44294;48.282;14.282;2023-12-20T05:24:28;8.70;;;7.80;;
28756;SDS011;44294;48.282;14.282;2023-12-20T05:27:15;8.67;;;7.67;;
28756;SDS011;44294;48.282;14.282;2023-12-20T05:30:03;9.07;;;7.80;;
28756;SDS011;44294;48.282;14.282;2023-12-20T05:32:50;9.70;;;8.07;;
28756;SDS011;44294;48.282;14.282;2023-12-20T05:35:38;9.60;;;7.97;;
28756;SDS011;44294;48.282;14.282;2023-12-20T05:38:25;8.30;;;7.40;;
28756;SDS011;44294;48.282;14.282;2023-12-20T05:41:12;9.53;;;7.90;;
28756;SDS011;44294;48.282;14.282;2023-12-20T05:44:00;9.07;;;7.80;;
28756;SDS011;44294;48.282;14.282;2023-12-20T05:46:47;10.80;;;8.60;;
28756;SDS011;44294;48.282;14.282;2023-12-20T05:49:34;8.60;;;7.70;;
28756;SDS011;44294;48.282;14.282;2023-12-20T05:52:21;9.17;;;7.80;;
28756;SDS011;44294;48.282;14.282;2023-12-20T05:55:09;9.00;;;8.10;;
28756;SDS011;44294;48.282;14.282;2023-12-20T05:57:56;10.03;;;8.30;;
28756;SDS011;44294;48.282;14.282;2023-12-20T06:00:43;7.70;;;6.80;;
28756;SDS011;44294;48.282;14.282;2023-12-20T06:03:31;7.50;;;6.70;;
28756;SDS011;44294;48.282;14.282;2023-12-20T06:06:18;7.27;;;6.57;;
28756;SDS011;44294;48.282;14.282;2023-12-20T06:09:05;7.17;;;6.43;;
28756;SDS011;44294;48.282;14.282;2023-12-20T06:11:53;8.07;;;6.50;;
28756;SDS011;44294;48.282;14.282;2023-12-20T06:14:40;7.63;;;6.83;;
28756;SDS011;44294;48.282;14.282;2023-12-20T06:17:27;6.97;;;6.20;;
28756;SDS011;44294;48.282;14.282;2023-12-20T06:20:17;6.80;;;6.10;;
28756;SDS011;44294;48.282;14.282;2023-12-20T06:23:04;8.33;;;6.00;;
28756;SDS011;44294;48.282;14.282;2023-12-20T06:25:51;6.33;;;5.73;;
28756;SDS011;44294;48.282;14.282;2023-12-20T06:28:38;7.10;;;5.90;;
28756;SDS011;44294;48.282;14.282;2023-12-20T06:31:26;6.53;;;5.70;;
28756;SDS011;44294;48.282;14.282;2023-12-20T06:34:13;6.50;;;5.80;;
28756;SDS011;44294;48.282;14.282;2023-12-20T06:37:00;7.27;;;6.10;;
28756;SDS011;44294;48.282;14.282;2023-12-20T06:39:47;6.20;;;5.60;;
28756;SDS011;44294;48.282;14.282;2023-12-20T06:42:35;5.87;;;5.20;;
28756;SDS011;44294;48.282;14.282;2023-12-20T06:45:22;5.10;;;4.60;;
28756;SDS011;44294;48.282;14.282;2023-12-20T06:48:09;4.43;;;4.03;;
28756;SDS011;44294;48.282;14.282;2023-12-20T06:50:59;4.20;;;3.80;;
28756;SDS011;44294;48.282;14.282;2023-12-20T06:53:48;4.20;;;3.80;;
28756;SDS011;44294;48.282;14.282;2023-12-20T06:56:35;3.50;;;3.20;;
28756;SDS011;44294;48.282;14.282;2023-12-20T06:59:23;3.93;;;3.57;;
28756;SDS011;44294;48.282;14.282;2023-12-20T07:02:10;4.00;;;3.60;;
28756;SDS011;44294;48.282;14.282;2023-12-20T07:04:57;4.23;;;3.60;;
28756;SDS011;44294;48.282;14.282;2023-12-20T07:07:45;4.57;;;3.20;;
28756;SDS011;44294;48.282;14.282;2023-12-20T07:10:33;4.77;;;3.73;;
28756;SDS011;44294;48.282;14.282;2023-12-20T07:13:20;3.63;;;3.33;;
28756;SDS011;44294;48.282;14.282;2023-12-20T07:16:08;3.60;;;3.30;;
28756;SDS011;44294;48.282;14.282;2023-12-20T07:18:56;4.30;;;3.77;;
28756;SDS011;44294;48.282;14.282;2023-12-20T07:21:43;3.80;;;3.50;;
28756;SDS011;44294;48.282;14.282;2023-12-20T07:24:31;4.10;;;3.73;;
28756;SDS011;44294;48.282;14.282;2023-12-20T07:27:18;3.90;;;3.60;;
28756;SDS011;44294;48.282;14.282;2023-12-20T07:30:06;4.10;;;3.70;;
28756;SDS011;44294;48.282;14.282;2023-12-20T07:32:53;3.93;;;3.53;;
28756;SDS011;44294;48.282;14.282;2023-12-20T07:35:40;4.20;;;3.67;;
28756;SDS011;44294;48.282;14.282;2023-12-20T07:38:28;5.17;;;4.17;;
28756;SDS011;44294;48.282;14.282;2023-12-20T07:41:15;4.40;;;4.00;;
28756;SDS011;44294;48.282;14.282;2023-12-20T07:44:04;4.83;;;4.40;;
28756;SDS011;44294;48.282;14.282;2023-12-20T07:46:51;4.40;;;4.00;;
28756;SDS011;44294;48.282;14.282;2023-12-20T07:49:39;4.40;;;4.00;;
28756;SDS011;44294;48.282;14.282;2023-12-20T07:52:26;4.03;;;3.63;;
28756;SDS011;44294;48.282;14.282;2023-12-20T07:55:13;4.77;;;3.50;;
28756;SDS011;44294;48.282;14.282;2023-12-20T07:58:00;3.30;;;3.00;;
28756;SDS011;44294;48.282;14.282;2023-12-20T08:00:48;3.60;;;3.30;;
28756;SDS011;44294;48.282;14.282;2023-12-20T08:03:35;3.20;;;3.00;;
28756;SDS011;44294;48.282;14.282;2023-12-20T08:06:23;3.47;;;3.13;;
28756;SDS011;44294;48.282;14.282;2023-12-20T08:09:10;3.10;;;2.87;;
28756;SDS011;44294;48.282;14.282;2023-12-20T08:11:58;3.10;;;2.80;;
28756;SDS011;44294;48.282;14.282;2023-12-20T08:14:46;3.03;;;2.70;;
28756;SDS011;44294;48.282;14.282;2023-12-20T08:17:33;2.87;;;2.67;;
28756;SDS011;44294;48.282;14.282;2023-12-20T08:20:20;2.80;;;2.60;;
28756;SDS011;44294;48.282;14.282;2023-12-20T08:23:08;2.70;;;2.50;;
28756;SDS011;44294;48.282;14.282;2023-12-20T08:25:55;2.57;;;2.37;;
28756;SDS011;44294;48.282;14.282;2023-12-20T08:28:42;2.37;;;2.27;;
28756;SDS011;44294;48.282;14.282;2023-12-20T08:31:29;2.43;;;2.23;;
28756;SDS011;44294;48.282;14.282;2023-12-20T08:34:17;2.53;;;2.33;;
28756;SDS011;44294;48.282;14.282;2023-12-20T08:37:04;10.97;;;9.77;;
28756;SDS011;44294;48.282;14.282;2023-12-20T08:39:51;9.13;;;6.83;;
28756;SDS011;44294;48.282;14.282;2023-12-20T08:42:39;3.83;;;3.53;;
28756;SDS011;44294;48.282;14.282;2023-12-20T08:45:26;2.70;;;2.50;;
28756;SDS011;44294;48.282;14.282;2023-12-20T08:48:13;2.40;;;2.30;;
28756;SDS011;44294;48.282;14.282;2023-12-20T08:51:01;2.57;;;2.37;;
28756;SDS011;44294;48.282;14.282;2023-12-20T08:53:48;2.30;;;2.20;;
28756;SDS011;44294;48.282;14.282;2023-12-20T08:56:35;2.10;;;2.00;;
28756;SDS011;44294;48.282;14.282;2023-12-20T08:59:22;2.20;;;2.10;;
28756;SDS011;44294;48.282;14.282;2023-12-20T09:02:10;14.80;;;12.20;;
28756;SDS011;44294;48.282;14.282;2023-12-20T09:04:57;10.67;;;9.03;;
28756;SDS011;44294;48.282;14.282;2023-12-20T09:07:45;3.50;;;3.20;;
28756;SDS011;44294;48.282;14.282;2023-12-20T09:10:32;3.67;;;3.37;;
28756;SDS011;44294;48.282;14.282;2023-12-20T09:13:19;2.90;;;2.70;;
28756;SDS011;44294;48.282;14.282;2023-12-20T09:16:08;2.63;;;2.43;;
28756;SDS011;44294;48.282;14.282;2023-12-20T09:18:55;3.00;;;2.80;;
28756;SDS011;44294;48.282;14.282;2023-12-20T09:21:43;2.53;;;2.40;;
28756;SDS011;44294;48.282;14.282;2023-12-20T09:24:30;2.50;;;2.30;;
28756;SDS011;44294;48.282;14.282;2023-12-20T09:27:18;3.10;;;2.80;;
28756;SDS011;44294;48.282;14.282;2023-12-20T09:30:05;2.70;;;2.50;;
28756;SDS011;44294;48.282;14.282;2023-12-20T09:32:52;2.20;;;2.10;;
28756;SDS011;44294;48.282;14.282;2023-12-20T09:35:40;2.30;;;2.20;;
28756;SDS011;44294;48.282;14.282;2023-12-20T09:38:27;2.23;;;2.13;;
28756;SDS011;44294;48.282;14.282;2023-12-20T09:41:15;2.40;;;2.20;;
28756;SDS011;44294;48.282;14.282;2023-12-20T09:44:02;2.10;;;2.00;;
28756;SDS011;44294;48.282;14.282;2023-12-20T09:46:50;2.30;;;2.10;;
28756;SDS011;44294;48.282;14.282;2023-12-20T09:49:40;2.10;;;2.00;;
28756;SDS011;44294;48.282;14.282;2023-12-20T09:52:28;2.40;;;2.20;;
28756;SDS011;44294;48.282;14.282;2023-12-20T09:55:19;19.77;;;14.80;;
28756;SDS011;44294;48.282;14.282;2023-12-20T09:58:06;10.00;;;8.83;;
28756;SDS011;44294;48.282;14.282;2023-12-20T10:00:54;3.40;;;3.03;;
28756;SDS011;44294;48.282;14.282;2023-12-20T10:03:42;3.10;;;2.90;;
28756;SDS011;44294;48.282;14.282;2023-12-20T10:06:29;3.60;;;3.30;;
28756;SDS011;44294;48.282;14.282;2023-12-20T10:09:16;3.23;;;2.80;;
28756;SDS011;44294;48.282;14.282;2023-12-20T10:12:05;3.20;;;2.90;;
28756;SDS011;44294;48.282;14.282;2023-12-20T10:14:52;3.57;;;3.27;;
28756;SDS011;44294;48.282;14.282;2023-12-20T10:17:40;3.73;;;3.40;;
28756;SDS011;44294;48.282;14.282;2023-12-20T10:20:27;3.37;;;3.07;;
28756;SDS011;44294;48.282;14.282;2023-12-20T10:23:16;3.50;;;3.20;;
28756;SDS011;44294;48.282;14.282;2023-12-20T10:26:04;3.50;;;3.17;;
28756;SDS011;44294;48.282;14.282;2023-12-20T10:28:55;4.17;;;3.83;;
28756;SDS011;44294;48.282;14.282;2023-12-20T10:31:43;7.30;;;6.57;;
28756;SDS011;44294;48.282;14.282;2023-12-20T10:34:32;3.10;;;2.90;;
28756;SDS011;44294;48.282;14.282;2023-12-20T10:37:19;2.33;;;2.20;;
28756;SDS011;44294;48.282;14.282;2023-12-20T10:40:07;2.53;;;2.33;;
28756;SDS011;44294;48.282;14.282;2023-12-20T10:42:55;2.43;;;2.23;;
28756;SDS011;44294;48.282;14.282;2023-12-20T10:45:43;2.40;;;2.20;;
28756;SDS011;44294;48.282;14.282;2023-12-20T10:48:30;2.30;;;2.10;;
28756;SDS011;44294;48.282;14.282;2023-12-20T10:51:19;2.40;;;2.20;;
28756;SDS011;44294;48.282;14.282;2023-12-20T10:54:07;1.83;;;1.73;;
28756;SDS011;44294;48.282;14.282;2023-12-20T10:56:55;2.10;;;2.00;;
28756;SDS011;44294;48.282;14.282;2023-12-20T10:59:44;2.60;;;2.00;;
28756;SDS011;44294;48.282;14.282;2023-12-20T11:02:36;2.17;;;1.97;;
28756;SDS011;44294;48.282;14.282;2023-12-20T11:05:44;3.20;;;2.90;;
28756;SDS011;44294;48.282;14.282;2023-12-20T11:08:20;18.57;;;12.77;;
28756;SDS011;44294;48.282;14.282;2023-12-20T11:11:12;5.30;;;4.80;;
28756;SDS011;44294;48.282;14.282;2023-12-20T11:14:02;2.17;;;2.07;;
28756;SDS011;44294;48.282;14.282;2023-12-20T11:16:47;2.00;;;1.90;;
28756;SDS011;44294;48.282;14.282;2023-12-20T11:19:38;1.90;;;1.80;;
28756;SDS011;44294;48.282;14.282;2023-12-20T11:22:26;1.90;;;1.80;;
28756;SDS011;44294;48.282;14.282;2023-12-20T11:25:14;1.80;;;1.70;;
28756;SDS011;44294;48.282;14.282;2023-12-20T11:28:08;2.00;;;1.90;;
28756;SDS011;44294;48.282;14.282;2023-12-20T11:30:57;1.90;;;1.80;;
28756;SDS011;44294;48.282;14.282;2023-12-20T11:33:46;1.90;;;1.80;;
28756;SDS011;44294;48.282;14.282;2023-12-20T11:36:35;1.90;;;1.80;;
28756;SDS011;44294;48.282;14.282;2023-12-20T11:39:22;1.90;;;1.80;;
28756;SDS011;44294;48.282;14.282;2023-12-20T11:42:10;1.70;;;1.60;;
28756;SDS011;44294;48.282;14.282;2023-12-20T11:44:57;2.40;;;1.83;;
28756;SDS011;44294;48.282;14.282;2023-12-20T11:47:46;1.90;;;1.80;;
28756;SDS011;44294;48.282;14.282;2023-12-20T11:50:36;1.70;;;1.60;;
28756;SDS011;44294;48.282;14.282;2023-12-20T11:53:23;1.70;;;1.60;;
28756;SDS011;44294;48.282;14.282;2023-12-20T11:56:10;1.80;;;1.70;;
28756;SDS011;44294;48.282;14.282;2023-12-20T11:58:58;1.77;;;1.67;;
28756;SDS011;44294;48.282;14.282;2023-12-20T12:01:49;1.73;;;1.63;;
28756;SDS011;44294;48.282;14.282;2023-12-20T12:04:36;1.60;;;1.50;;
28756;SDS011;44294;48.282;14.282;2023-12-20T12:07:24;1.60;;;1.60;;
28756;SDS011;44294;48.282;14.282;2023-12-20T12:10:11;1.60;;;1.50;;
28756;SDS011;44294;48.282;14.282;2023-12-20T12:12:59;2.50;;;1.70;;
28756;SDS011;44294;48.282;14.282;2023-12-20T12:15:47;1.90;;;1.80;;
28756;SDS011;44294;48.282;14.282;2023-12-20T12:18:36;2.10;;;2.00;;
28756;SDS011;44294;48.282;14.282;2023-12-20T12:21:24;2.20;;;2.00;;
28756;SDS011;44294;48.282;14.282;2023-12-20T12:24:11;2.30;;;2.10;;
28756;SDS011;44294;48.282;14.282;2023-12-20T12:26:59;2.10;;;2.00;;
28756;SDS011;44294;48.282;14.282;2023-12-20T12:30:02;2.10;;;2.00;;
28756;SDS011;44294;48.282;14.282;2023-12-20T12:32:50;2.30;;;2.10;;
28756;SDS011;44294;48.282;14.282;2023-12-20T12:35:38;2.23;;;2.03;;
28756;SDS011;44294;48.282;14.282;2023-12-20T12:38:25;2.60;;;2.40;;
28756;SDS011;44294;48.282;14.282;2023-12-20T12:41:13;2.30;;;2.20;;
28756;SDS011;44294;48.282;14.282;2023-12-20T12:44:01;1.90;;;1.80;;
28756;SDS011;44294;48.282;14.282;2023-12-20T12:46:48;1.80;;;1.70;;
28756;SDS011;44294;48.282;14.282;2023-12-20T12:49:40;1.73;;;1.63;;
28756;SDS011;44294;48.282;14.282;2023-12-20T12:52:27;1.80;;;1.70;;
28756;SDS011;44294;48.282;14.282;2023-12-20T12:55:15;1.70;;;1.60;;
28756;SDS011;44294;48.282;14.282;2023-12-20T12:58:02;1.50;;;1.50;;
28756;SDS011;44294;48.282;14.282;2023-12-20T13:00:49;1.70;;;1.60;;
28756;SDS011;44294;48.282;14.282;2023-12-20T13:03:37;1.80;;;1.70;;
28756;SDS011;44294;48.282;14.282;2023-12-20T13:06:24;1.70;;;1.60;;
28756;SDS011;44294;48.282;14.282;2023-12-20T13:09:12;1.70;;;1.60;;
28756;SDS011;44294;48.282;14.282;2023-12-20T13:11:59;1.77;;;1.67;;
28756;SDS011;44294;48.282;14.282;2023-12-20T13:14:48;1.67;;;1.60;;
28756;SDS011;44294;48.282;14.282;2023-12-20T13:17:36;1.60;;;1.50;;
28756;SDS011;44294;48.282;14.282;2023-12-20T13:20:23;1.70;;;1.60;;
28756;SDS011;44294;48.282;14.282;2023-12-20T13:23:11;2.20;;;1.83;;
28756;SDS011;44294;48.282;14.282;2023-12-20T13:25:58;1.90;;;1.80;;
28756;SDS011;44294;48.282;14.282;2023-12-20T13:28:46;1.90;;;1.80;;
28756;SDS011;44294;48.282;14.282;2023-12-20T13:31:33;1.80;;;1.70;;
28756;SDS011;44294;48.282;14.282;2023-12-20T13:34:22;1.90;;;1.80;;
28756;SDS011;44294;48.282;14.282;2023-12-20T13:37:09;1.90;;;1.80;;
28756;SDS011;44294;48.282;14.282;2023-12-20T13:39:57;1.80;;;1.70;;
28756;SDS011;44294;48.282;14.282;2023-12-20T13:42:44;1.90;;;1.80;;
28756;SDS011;44294;48.282;14.282;2023-12-20T13:45:31;2.00;;;1.90;;
28756;SDS011;44294;48.282;14.282;2023-12-20T13:48:19;1.80;;;1.70;;
28756;SDS011;44294;48.282;14.282;2023-12-20T13:51:06;1.83;;;1.73;;
28756;SDS011;44294;48.282;14.282;2023-12-20T13:53:54;2.07;;;1.90;;
28756;SDS011;44294;48.282;14.282;2023-12-20T13:56:41;1.80;;;1.70;;
28756;SDS011;44294;48.282;14.282;2023-12-20T13:59:30;1.90;;;1.80;;
28756;SDS011;44294;48.282;14.282;2023-12-20T14:02:17;2.80;;;1.90;;
28756;SDS011;44294;48.282;14.282;2023-12-20T14:05:04;2.00;;;1.90;;
28756;SDS011;44294;48.282;14.282;2023-12-20T14:07:52;2.10;;;2.00;;
28756;SDS011;44294;48.282;14.282;2023-12-20T14:10:39;2.00;;;1.90;;
28756;SDS011;44294;48.282;14.282;2023-12-20T14:13:26;1.90;;;1.80;;
28756;SDS011;44294;48.282;14.282;2023-12-20T14:16:14;1.90;;;1.80;;
28756;SDS011;44294;48.282;14.282;2023-12-20T14:19:03;2.13;;;2.00;;
28756;SDS011;44294;48.282;14.282;2023-12-20T14:21:52;2.00;;;1.90;;
28756;SDS011;44294;48.282;14.282;2023-12-20T14:24:39;1.80;;;1.70;;
28756;SDS011;44294;48.282;14.282;2023-12-20T14:27:27;1.80;;;1.70;;
28756;SDS011;44294;48.282;14.282;2023-12-20T14:30:14;1.80;;;1.70;;
28756;SDS011;44294;48.282;14.282;2023-12-20T14:33:03;1.80;;;1.70;;
28756;SDS011;44294;48.282;14.282;2023-12-20T14:35:50;1.60;;;1.50;;
28756;SDS011;44294;48.282;14.282;2023-12-20T14:38:38;1.40;;;1.40;;
28756;SDS011;44294;48.282;14.282;2023-12-20T14:41:26;1.60;;;1.50;;
28756;SDS011;44294;48.282;14.282;2023-12-20T14:44:13;1.40;;;1.40;;
28756;SDS011;44294;48.282;14.282;2023-12-20T14:47:00;1.50;;;1.50;;
28756;SDS011;44294;48.282;14.282;2023-12-20T14:49:48;1.70;;;1.60;;
28756;SDS011;44294;48.282;14.282;2023-12-20T14:52:36;1.50;;;1.40;;
28756;SDS011;44294;48.282;14.282;2023-12-20T14:55:23;1.60;;;1.50;;
28756;SDS011;44294;48.282;14.282;2023-12-20T14:58:12;1.70;;;1.60;;
28756;SDS011;44294;48.282;14.282;2023-12-20T15:01:01;1.70;;;1.60;;
28756;SDS011;44294;48.282;14.282;2023-12-20T15:03:48;1.40;;;1.40;;
28756;SDS011;44294;48.282;14.282;2023-12-20T15:06:35;1.50;;;1.50;;
28756;SDS011;44294;48.282;14.282;2023-12-20T15:09:23;1.60;;;1.50;;
28756;SDS011;44294;48.282;14.282;2023-12-20T15:12:10;1.70;;;1.60;;
28756;SDS011;44294;48.282;14.282;2023-12-20T15:14:58;1.60;;;1.50;;
28756;SDS011;44294;48.282;14.282;2023-12-20T15:17:45;1.60;;;1.50;;
28756;SDS011;44294;48.282;14.282;2023-12-20T15:20:32;1.50;;;1.50;;
28756;SDS011;44294;48.282;14.282;2023-12-20T15:23:20;1.50;;;1.50;;
28756;SDS011;44294;48.282;14.282;2023-12-20T15:26:09;1.60;;;1.50;;
28756;SDS011;44294;48.282;14.282;2023-12-20T15:28:56;1.60;;;1.50;;
28756;SDS011;44294;48.282;14.282;2023-12-20T15:31:45;1.70;;;1.60;;
28756;SDS011;44294;48.282;14.282;2023-12-20T15:34:32;1.90;;;1.80;;
28756;SDS011;44294;48.282;14.282;2023-12-20T15:37:20;1.90;;;1.80;;
28756;SDS011;44294;48.282;14.282;2023-12-20T15:40:07;1.80;;;1.70;;
28756;SDS011;44294;48.282;14.282;2023-12-20T15:42:56;1.90;;;1.80;;
28756;SDS011;44294;48.282;14.282;2023-12-20T15:45:45;1.90;;;1.80;;
28756;SDS011;44294;48.282;14.282;2023-12-20T15:48:33;3.00;;;1.97;;
28756;SDS011;44294;48.282;14.282;2023-12-20T15:51:20;2.00;;;1.90;;
28756;SDS011;44294;48.282;14.282;2023-12-20T15:54:08;3.93;;;2.00;;
28756;SDS011;44294;48.282;14.282;2023-12-20T15:56:55;2.37;;;2.00;;
28756;SDS011;44294;48.282;14.282;2023-12-20T15:59:43;2.00;;;1.90;;
28756;SDS011;44294;48.282;14.282;2023-12-20T16:02:31;1.90;;;1.80;;
28756;SDS011;44294;48.282;14.282;2023-12-20T16:05:19;1.93;;;1.83;;
28756;SDS011;44294;48.282;14.282;2023-12-20T16:08:06;2.03;;;1.83;;
28756;SDS011;44294;48.282;14.282;2023-12-20T16:10:54;5.60;;;4.93;;
28756;SDS011;44294;48.282;14.282;2023-12-20T16:13:41;8.00;;;6.70;;
28756;SDS011;44294;48.282;14.282;2023-12-20T16:16:28;2.60;;;2.40;;
28756;SDS011;44294;48.282;14.282;2023-12-20T16:19:15;2.07;;;1.93;;
28756;SDS011;44294;48.282;14.282;2023-12-20T16:22:04;2.00;;;1.80;;
28756;SDS011;44294;48.282;14.282;2023-12-20T16:24:51;2.00;;;1.90;;
28756;SDS011;44294;48.282;14.282;2023-12-20T16:27:38;1.80;;;1.70;;
28756;SDS011;44294;48.282;14.282;2023-12-20T16:30:26;1.90;;;1.80;;
28756;SDS011;44294;48.282;14.282;2023-12-20T16:33:13;2.30;;;2.10;;